CheckWX is a tool to help pilots better visualize weather data.  It is not intended as a substitute for an official pre-flight weather briefing.

02:08:35 UTC

DNAA TAF
Nnamdi Azikiwe International Airport
Abuja, Nigeria
TAF DNAA 142300Z 1500/1606 VRB02KT 9999 FEW008 TEMPO 1504/1508 3000 BR BKN007 BECMG 1508/1510 25007KT BKN010

Oct-15@
00:00 UTC

Oct-15 @ 00:00 UTC

Oct-15@
08:00 UTC

Oct-15 @ 08:00 UTC

TAF DNAA 142300Z 1500/1606 VRB02KT 9999 FEW008
Wind
  • Variable at 2 KTS
Cloud Levels
  • Few at 800' AGL

Oct-15@
04:00 UTC

Oct-15 @ 04:00 UTC

Oct-15@
08:00 UTC

Oct-15 @ 08:00 UTC

TEMPO 1504/1508 3000 BR BKN007

Temporary

Temporary Changes expected for less than half the time period

Conditions
Mist
Cloud Levels
  • Broken at 700' AGL

Oct-15@
08:00 UTC

Oct-15 @ 08:00 UTC

Oct-16@
06:00 UTC

Oct-16 @ 06:00 UTC

BECMG 1508/1510 25007KT BKN010

Becoming

Becoming Conditions expected by Tue, Oct 15, 2019 @ 10:00 UTC

Wind
  • 250° at 7 KTS
Cloud Levels
  • Broken at 1,000' AGL